Portada
METAR-TAF:

METAR-TAF

Aeropuertos :

Aeropuerto de Pau-Pirineos

Pau, Francia

latitud: 43-23N, longitud: 000-25W, altitud: 188 m

Observación

El informe se hizo hace 5 minutos, a las 18:30 UTC
Viento 5 kt del este-sureste
Temperatura 19°C
Humedad 73%
Presión 1020 hPa
Visibilidad 10 km o más
sin nubes por debajo de 1500 m y sin presencia de cumulonimbus.

METAR: LFBP 191830Z AUTO 11005KT CAVOK 19/14 Q1020 NOSIG

Hora: 20:35 (18:35 UTC)

Pronóstico

El informe se hizo hace 1 hora y 35 minutos, a las 17:00 UTC
Pronóstico válido del 19 a las 18 UTC al 20 a las 18 UTC
Viento 5 kt del sureste
Visibilidad 10 km o más
sin nubes por debajo de 1500 m y sin presencia de cumulonimbus.

TAF: LFBP 191700Z 1918/2018 13005KT CAVOK

Observaciones y pronósticos meteorológicos de más de 4000 aeropuertos (mensajes METAR y TAF).

Los puntos amarillos y rojos representan las estaciones disponibles.

Ponga el ratón en el punto deseado para ver el nombre de la estación.

Haga clic para ver las observaciones y los pronósticos meteorológicos.

Para cambiar el mapa : haga clic en los botones verdes con una cruz de color negro para hacer un zoom, en el botón verde con un guión para alejar o en las flechas verdes para mapas adyacentes.


METAR-TAF: